Time;durP1;ratioP1;P1;durP2;ratioP2;P2;SDS_P1;SDS_P2;PMS_P1;PMS_P2;Temp;Humidity;BMP_temperature;BMP_pressure;BME280_temperature;BME280_humidity;BME280_pressure;Samples;Min_cycle;Max_cycle;Signal;HPM_P1;HPM_P2
2022/03/17 00:02:01;;;;;;;22.88;9.32;;;;;;;;;;5043960;28;20111;-72
2022/03/17 00:04:28;;;;;;;21.95;8.85;;;;;;;;;;5048706;28;20087;-72
2022/03/17 00:06:54;;;;;;;24.48;9.50;;;;;;;;;;5051938;28;20037;-72
2022/03/17 00:09:20;;;;;;;19.35;9.18;;;;;;;;;;5056020;28;20033;-73
2022/03/17 00:11:47;;;;;;;19.15;8.50;;;;;;;;;;5051762;28;20537;-72
2022/03/17 00:14:13;;;;;;;22.92;9.98;;;;;;;;;;5060978;28;20103;-72
2022/03/17 00:16:40;;;;;;;22.58;10.45;;;;;;;;;;5057000;28;20411;-72
2022/03/17 00:19:08;;;;;;;25.80;9.73;;;;;;;;;;5052098;28;20061;-72
2022/03/17 00:21:37;;;;;;;18.25;9.38;;;;;;;;;;5049429;28;20051;-72
2022/03/17 00:24:06;;;;;;;20.25;8.88;;;;;;;;;;5028699;28;20029;-73
2022/03/17 00:26:34;;;;;;;20.25;7.80;;;;;;;;;;5037486;28;20040;-72
2022/03/17 00:29:00;;;;;;;15.98;7.50;;;;;;;;;;5063840;28;20032;-73
2022/03/17 00:31:26;;;;;;;16.35;7.78;;;;;;;;;;5050987;28;20040;-72
2022/03/17 00:33:52;;;;;;;19.13;7.68;;;;;;;;;;5048486;28;20033;-72
2022/03/17 00:36:18;;;;;;;19.85;8.20;;;;;;;;;;5062550;28;20040;-73
2022/03/17 00:38:44;;;;;;;22.73;8.05;;;;;;;;;;5055404;28;20071;-72
2022/03/17 00:41:10;;;;;;;20.20;7.95;;;;;;;;;;5064336;28;20418;-73
2022/03/17 00:43:36;;;;;;;18.63;7.50;;;;;;;;;;5054198;28;20079;-73
2022/03/17 00:46:02;;;;;;;23.85;8.75;;;;;;;;;;5052000;28;20037;-73
2022/03/17 00:48:29;;;;;;;26.77;10.68;;;;;;;;;;5049247;28;20037;-73
2022/03/17 00:50:55;;;;;;;29.10;12.48;;;;;;;;;;5055434;28;20036;-72
2022/03/17 00:53:21;;;;;;;26.75;11.93;;;;;;;;;;5060891;28;20760;-73
2022/03/17 00:55:47;;;;;;;28.58;11.70;;;;;;;;;;5056000;28;20055;-73
2022/03/17 00:58:13;;;;;;;32.55;11.45;;;;;;;;;;5050770;28;20029;-72
2022/03/17 01:00:39;;;;;;;26.17;10.90;;;;;;;;;;5047873;28;20029;-72
2022/03/17 01:03:05;;;;;;;23.38;10.75;;;;;;;;;;5042023;28;20064;-73
2022/03/17 01:05:31;;;;;;;22.63;11.02;;;;;;;;;;5047040;28;20369;-73
2022/03/17 01:07:57;;;;;;;22.73;11.32;;;;;;;;;;5051610;28;20029;-73
2022/03/17 01:10:24;;;;;;;28.25;11.05;;;;;;;;;;5048915;28;20037;-73
2022/03/17 01:12:50;;;;;;;21.63;9.93;;;;;;;;;;5066327;28;20094;-72
2022/03/17 01:15:17;;;;;;;20.83;9.27;;;;;;;;;;5047351;28;20037;-73
2022/03/17 01:17:43;;;;;;;27.80;10.23;;;;;;;;;;5051275;28;20043;-73
2022/03/17 01:20:10;;;;;;;21.48;9.25;;;;;;;;;;5047034;28;20041;-73
2022/03/17 01:22:36;;;;;;;26.52;8.88;;;;;;;;;;5052935;28;20067;-72
2022/03/17 01:25:03;;;;;;;18.80;8.77;;;;;;;;;;5049791;28;20056;-72
2022/03/17 01:27:29;;;;;;;19.45;8.85;;;;;;;;;;5056703;28;20076;-73
2022/03/17 01:29:55;;;;;;;18.65;8.80;;;;;;;;;;5057630;28;20155;-73
2022/03/17 01:32:22;;;;;;;22.52;9.80;;;;;;;;;;5065384;28;20044;-73
2022/03/17 01:34:48;;;;;;;19.35;8.60;;;;;;;;;;5064888;28;20067;-72
2022/03/17 01:37:15;;;;;;;25.35;7.93;;;;;;;;;;5059934;28;20037;-73
2022/03/17 01:39:41;;;;;;;18.65;7.97;;;;;;;;;;5058924;28;20055;-73
2022/03/17 01:42:09;;;;;;;20.00;8.68;;;;;;;;;;5052973;28;20052;-73
2022/03/17 01:44:35;;;;;;;25.80;7.55;;;;;;;;;;5049860;28;20045;-73
2022/03/17 01:49:46;;;;;;;16.60;6.80;;;;;;;;;;5059630;28;20095;-72
2022/03/17 01:52:12;;;;;;;16.17;6.90;;;;;;;;;;5064762;28;20032;-72
2022/03/17 01:54:39;;;;;;;14.50;6.47;;;;;;;;;;5055013;28;20033;-73
2022/03/17 01:57:07;;;;;;;15.20;5.85;;;;;;;;;;5062484;28;20050;-73
2022/03/17 01:59:33;;;;;;;21.17;6.47;;;;;;;;;;5060381;28;20033;-73
2022/03/17 02:02:02;;;;;;;19.33;6.47;;;;;;;;;;5052186;28;20032;-73
2022/03/17 02:04:28;;;;;;;16.08;5.85;;;;;;;;;;5047380;28;20044;-72
2022/03/17 02:06:54;;;;;;;15.52;5.88;;;;;;;;;;5051569;28;20029;-73
2022/03/17 02:09:20;;;;;;;14.25;5.88;;;;;;;;;;5052451;28;20052;-73
2022/03/17 02:14:34;;;;;;;21.75;7.80;;;;;;;;;;5053351;28;20115;-72
2022/03/17 02:17:00;;;;;;;18.80;6.95;;;;;;;;;;5041252;28;20067;-72
2022/03/17 02:19:26;;;;;;;19.23;7.03;;;;;;;;;;5037603;28;20076;-72
2022/03/17 02:21:53;;;;;;;20.40;5.82;;;;;;;;;;5049882;28;20028;-72
2022/03/17 02:27:04;;;;;;;16.55;6.80;;;;;;;;;;5050993;28;20410;-73
2022/03/17 02:29:31;;;;;;;21.50;7.13;;;;;;;;;;5051127;28;20071;-73
2022/03/17 02:31:58;;;;;;;22.80;7.28;;;;;;;;;;5050273;28;20107;-73
2022/03/17 02:34:24;;;;;;;17.27;6.55;;;;;;;;;;5056765;28;20112;-72
2022/03/17 02:36:50;;;;;;;17.38;7.55;;;;;;;;;;5044832;28;20038;-72
2022/03/17 02:39:17;;;;;;;21.75;8.35;;;;;;;;;;5060694;28;20033;-72
2022/03/17 02:41:43;;;;;;;22.75;8.43;;;;;;;;;;5054131;28;20032;-73
2022/03/17 02:44:10;;;;;;;18.30;7.95;;;;;;;;;;5054103;28;20553;-72
2022/03/17 02:46:36;;;;;;;18.67;8.35;;;;;;;;;;5067615;28;20491;-73
2022/03/17 02:49:02;;;;;;;23.63;9.02;;;;;;;;;;5057375;28;20403;-73
2022/03/17 02:51:28;;;;;;;20.27;8.15;;;;;;;;;;5051737;28;20368;-73
2022/03/17 02:53:54;;;;;;;17.88;7.85;;;;;;;;;;5048960;28;20040;-73
2022/03/17 02:56:20;;;;;;;20.05;9.23;;;;;;;;;;5046944;28;20032;-73
2022/03/17 02:58:46;;;;;;;18.90;7.80;;;;;;;;;;5062436;28;20043;-73
2022/03/17 03:01:12;;;;;;;19.40;7.78;;;;;;;;;;5070359;28;20531;-73
2022/03/17 03:03:38;;;;;;;18.55;7.35;;;;;;;;;;5056980;28;20091;-73
2022/03/17 03:06:04;;;;;;;16.63;7.13;;;;;;;;;;5050111;28;20028;-72
2022/03/17 03:08:31;;;;;;;23.70;7.75;;;;;;;;;;5048667;28;20079;-72
2022/03/17 03:10:57;;;;;;;19.73;6.68;;;;;;;;;;5056265;28;20472;-72
2022/03/17 03:13:23;;;;;;;12.23;6.00;;;;;;;;;;5059942;28;20044;-72
2022/03/17 03:15:52;;;;;;;22.50;7.35;;;;;;;;;;5055701;28;20052;-73
2022/03/17 03:18:19;;;;;;;14.80;7.03;;;;;;;;;;5050448;28;20060;-72
2022/03/17 03:20:45;;;;;;;16.65;7.10;;;;;;;;;;5060746;28;20025;-72
2022/03/17 03:23:11;;;;;;;17.80;6.70;;;;;;;;;;5060520;28;20037;-72
2022/03/17 03:25:37;;;;;;;14.18;6.28;;;;;;;;;;5049822;28;20029;-72
2022/03/17 03:28:10;;;;;;;23.77;8.50;;;;;;;;;;5051412;28;20044;-72
2022/03/17 03:30:36;;;;;;;17.92;6.80;;;;;;;;;;5049959;28;20036;-73
2022/03/17 03:33:03;;;;;;;18.50;8.05;;;;;;;;;;5053205;28;20032;-73
2022/03/17 03:38:14;;;;;;;20.63;6.45;;;;;;;;;;5042784;28;20530;-72
2022/03/17 03:40:40;;;;;;;19.60;7.00;;;;;;;;;;5047799;28;20112;-72
2022/03/17 03:43:07;;;;;;;18.08;6.50;;;;;;;;;;5049757;28;20028;-73
2022/03/17 03:45:33;;;;;;;18.63;6.70;;;;;;;;;;5054961;28;20033;-73
2022/03/17 03:47:59;;;;;;;17.75;6.45;;;;;;;;;;5065186;28;20176;-72
2022/03/17 03:50:30;;;;;;;17.90;7.10;;;;;;;;;;5060939;28;20803;-72
2022/03/17 03:52:56;;;;;;;17.25;6.72;;;;;;;;;;5053442;28;20028;-73
2022/03/17 03:55:22;;;;;;;17.50;6.28;;;;;;;;;;5040580;28;20033;-72
2022/03/17 03:57:48;;;;;;;16.27;6.70;;;;;;;;;;5050276;28;20071;-73
2022/03/17 04:02:57;;;;;;;15.88;6.22;;;;;;;;;;5065115;28;20055;-72
2022/03/17 04:05:45;;;;;;;19.15;7.85;;;;;;;;;;5057542;28;20028;-72
2022/03/17 04:08:10;;;;;;;20.20;7.03;;;;;;;;;;5032826;28;20096;-72
2022/03/17 04:10:36;;;;;;;17.17;6.82;;;;;;;;;;5050078;28;20048;-72
2022/03/17 04:13:02;;;;;;;24.20;8.27;;;;;;;;;;5060086;28;20029;-72
2022/03/17 04:15:28;;;;;;;18.45;7.38;;;;;;;;;;5051292;28;20030;-72
2022/03/17 04:17:54;;;;;;;17.42;7.43;;;;;;;;;;5059104;28;20029;-73
2022/03/17 04:20:22;;;;;;;18.17;6.30;;;;;;;;;;5047922;28;20047;-73
2022/03/17 04:22:48;;;;;;;12.98;5.70;;;;;;;;;;5059887;28;20035;-73
2022/03/17 04:25:14;;;;;;;15.68;6.22;;;;;;;;;;5055866;28;20037;-73
2022/03/17 04:27:41;;;;;;;13.65;6.20;;;;;;;;;;5046973;28;20604;-72
2022/03/17 04:30:08;;;;;;;17.40;5.90;;;;;;;;;;5049032;28;20060;-72
2022/03/17 04:32:34;;;;;;;16.58;6.03;;;;;;;;;;5049224;28;20033;-73
2022/03/17 04:35:00;;;;;;;21.58;6.70;;;;;;;;;;5054860;28;20040;-74
2022/03/17 04:37:26;;;;;;;17.45;6.47;;;;;;;;;;5037811;28;20029;-73
2022/03/17 04:39:52;;;;;;;15.77;6.20;;;;;;;;;;5055939;28;20037;-73
2022/03/17 04:42:18;;;;;;;28.27;9.27;;;;;;;;;;5054099;28;20048;-73
2022/03/17 04:44:44;;;;;;;17.80;7.57;;;;;;;;;;5064539;28;20037;-73
2022/03/17 04:47:10;;;;;;;22.05;10.20;;;;;;;;;;5056566;28;20480;-73
2022/03/17 04:49:36;;;;;;;22.52;8.13;;;;;;;;;;5057614;28;20044;-73
2022/03/17 04:53:26;;;;;;;19.25;7.55;;;;;;;;;;5057362;28;20025;-73
2022/03/17 04:54:49;;;;;;;19.02;7.47;;;;;;;;;;5048484;28;20455;-73
2022/03/17 04:57:15;;;;;;;21.92;8.98;;;;;;;;;;5055265;28;20047;-73
2022/03/17 04:59:41;;;;;;;21.65;9.05;;;;;;;;;;5054959;28;20037;-73
2022/03/17 05:02:07;;;;;;;24.88;9.95;;;;;;;;;;5048044;28;20116;-73
2022/03/17 05:04:33;;;;;;;26.95;12.13;;;;;;;;;;5058971;28;20124;-72
2022/03/17 05:06:59;;;;;;;32.38;13.35;;;;;;;;;;5058983;28;20036;-72
2022/03/17 05:09:25;;;;;;;32.28;14.13;;;;;;;;;;5056985;28;20112;-72
2022/03/17 05:11:53;;;;;;;31.40;15.40;;;;;;;;;;5062244;28;20152;-72
2022/03/17 05:14:19;;;;;;;40.17;21.42;;;;;;;;;;5051832;28;20021;-72
2022/03/17 05:16:46;;;;;;;39.40;16.38;;;;;;;;;;5052528;28;20131;-73
2022/03/17 05:19:12;;;;;;;29.08;15.07;;;;;;;;;;5059461;28;20124;-73
2022/03/17 05:21:38;;;;;;;27.40;14.52;;;;;;;;;;5051754;28;20120;-73
2022/03/17 05:24:04;;;;;;;31.10;14.82;;;;;;;;;;5061205;28;20056;-73
2022/03/17 05:26:30;;;;;;;27.38;13.65;;;;;;;;;;5052364;28;20036;-73
2022/03/17 05:28:56;;;;;;;22.73;12.10;;;;;;;;;;5051315;28;20047;-72
2022/03/17 05:31:23;;;;;;;30.45;12.52;;;;;;;;;;5059705;28;20119;-72
2022/03/17 05:33:49;;;;;;;30.75;12.63;;;;;;;;;;5054580;28;20078;-73
2022/03/17 05:36:15;;;;;;;27.33;11.50;;;;;;;;;;5032302;28;20037;-73
2022/03/17 05:38:41;;;;;;;22.77;10.75;;;;;;;;;;5043943;28;20037;-73
2022/03/17 05:41:07;;;;;;;24.38;11.82;;;;;;;;;;5049078;28;20036;-72
2022/03/17 05:43:33;;;;;;;25.92;11.13;;;;;;;;;;5032039;28;20038;-73
2022/03/17 05:45:59;;;;;;;25.13;10.90;;;;;;;;;;5044836;28;20036;-72
2022/03/17 05:48:25;;;;;;;29.58;11.98;;;;;;;;;;5054650;28;20082;-73
2022/03/17 05:50:51;;;;;;;42.83;14.20;;;;;;;;;;5052978;28;20043;-72
2022/03/17 05:53:17;;;;;;;36.03;15.25;;;;;;;;;;5071662;28;20790;-72
2022/03/17 05:55:43;;;;;;;34.05;16.13;;;;;;;;;;5059040;28;20036;-72
2022/03/17 05:58:09;;;;;;;36.50;16.52;;;;;;;;;;5063855;28;20363;-73
2022/03/17 06:00:35;;;;;;;27.17;12.15;;;;;;;;;;5056701;28;20036;-72
2022/03/17 06:03:03;;;;;;;25.23;12.90;;;;;;;;;;5051408;28;20087;-72
2022/03/17 06:05:30;;;;;;;27.02;12.70;;;;;;;;;;5061621;28;20128;-72
2022/03/17 06:08:00;;;;;;;26.73;12.85;;;;;;;;;;5061543;28;20039;-73
2022/03/17 06:10:28;;;;;;;26.52;11.73;;;;;;;;;;5067855;28;20036;-72
2022/03/17 06:12:54;;;;;;;27.50;12.52;;;;;;;;;;5039358;28;20032;-72
2022/03/17 06:15:21;;;;;;;27.85;13.07;;;;;;;;;;5062985;28;20087;-72
2022/03/17 06:18:07;;;;;;;22.42;9.98;;;;;;;;;;5058338;28;20025;-72
2022/03/17 06:20:36;;;;;;;28.20;9.75;;;;;;;;;;5048719;28;20037;-72
2022/03/17 06:23:04;;;;;;;20.33;9.93;;;;;;;;;;5054590;28;20040;-72
2022/03/17 06:25:32;;;;;;;24.50;10.93;;;;;;;;;;5059582;28;20415;-72
2022/03/17 06:27:58;;;;;;;25.77;10.27;;;;;;;;;;5049695;28;20093;-72
2022/03/17 06:30:25;;;;;;;20.15;9.35;;;;;;;;;;5052433;28;20052;-74
2022/03/17 06:32:52;;;;;;;22.48;9.55;;;;;;;;;;5051416;28;20042;-73
2022/03/17 06:35:19;;;;;;;27.60;10.63;;;;;;;;;;5049838;28;20039;-74
2022/03/17 06:37:46;;;;;;;19.33;9.32;;;;;;;;;;5047097;28;20035;-73
2022/03/17 06:40:13;;;;;;;25.52;10.95;;;;;;;;;;5057914;28;20748;-73
2022/03/17 06:42:39;;;;;;;26.80;10.45;;;;;;;;;;5051991;28;20033;-74
2022/03/17 06:45:05;;;;;;;30.77;11.35;;;;;;;;;;5047995;28;20030;-73
2022/03/17 06:47:31;;;;;;;29.42;13.63;;;;;;;;;;5055685;28;20024;-73
2022/03/17 06:49:57;;;;;;;36.17;17.15;;;;;;;;;;5052408;28;20890;-74
2022/03/17 06:52:23;;;;;;;38.50;16.27;;;;;;;;;;5052228;28;20037;-73
2022/03/17 06:54:50;;;;;;;33.25;15.20;;;;;;;;;;5065265;28;20033;-73
2022/03/17 06:57:19;;;;;;;38.97;16.60;;;;;;;;;;5062183;28;20107;-73
2022/03/17 06:59:45;;;;;;;32.75;15.65;;;;;;;;;;5054704;28;20028;-74
2022/03/17 07:02:11;;;;;;;37.10;15.25;;;;;;;;;;5059250;28;20037;-73
2022/03/17 07:04:37;;;;;;;37.03;15.85;;;;;;;;;;5050928;28;20064;-73
2022/03/17 07:07:03;;;;;;;26.90;15.20;;;;;;;;;;5053906;28;20091;-74
2022/03/17 07:09:29;;;;;;;33.67;14.60;;;;;;;;;;5050896;28;20045;-73
2022/03/17 07:11:55;;;;;;;33.65;14.95;;;;;;;;;;5050453;28;20091;-74
2022/03/17 07:14:21;;;;;;;31.85;13.70;;;;;;;;;;5052612;28;20067;-73
2022/03/17 07:16:47;;;;;;;37.17;12.48;;;;;;;;;;5058291;28;20028;-73
2022/03/17 07:19:13;;;;;;;30.65;12.07;;;;;;;;;;5047372;28;20051;-74
2022/03/17 07:21:39;;;;;;;27.75;11.95;;;;;;;;;;5042065;28;20033;-73
2022/03/17 07:24:06;;;;;;;31.98;14.50;;;;;;;;;;5058956;28;20065;-74
2022/03/17 07:26:32;;;;;;;24.02;12.10;;;;;;;;;;5058547;28;20494;-73
2022/03/17 07:28:58;;;;;;;33.60;14.07;;;;;;;;;;5057469;28;20037;-73
2022/03/17 07:31:24;;;;;;;32.35;13.50;;;;;;;;;;5059713;28;20043;-73
2022/03/17 07:33:50;;;;;;;35.00;12.48;;;;;;;;;;5059330;28;20487;-73
2022/03/17 07:36:17;;;;;;;34.60;12.27;;;;;;;;;;5055101;28;20083;-73
2022/03/17 07:38:43;;;;;;;28.13;12.52;;;;;;;;;;5047931;28;20749;-73
2022/03/17 07:41:09;;;;;;;32.42;14.35;;;;;;;;;;5050470;28;20029;-73
2022/03/17 07:43:35;;;;;;;26.60;13.57;;;;;;;;;;5049430;28;20472;-74
2022/03/17 07:46:01;;;;;;;27.65;11.90;;;;;;;;;;5062559;28;20033;-73
2022/03/17 07:48:27;;;;;;;28.52;12.23;;;;;;;;;;5065511;28;20032;-73
2022/03/17 07:50:53;;;;;;;31.98;13.10;;;;;;;;;;5061933;28;20028;-73
2022/03/17 07:53:19;;;;;;;42.60;16.35;;;;;;;;;;5060601;28;20036;-73
2022/03/17 07:55:45;;;;;;;40.95;16.27;;;;;;;;;;5053243;28;20037;-73
2022/03/17 07:58:12;;;;;;;38.70;14.82;;;;;;;;;;5054075;28;20055;-73
2022/03/17 08:00:39;;;;;;;42.78;15.50;;;;;;;;;;5041483;28;20068;-72
2022/03/17 08:03:05;;;;;;;42.13;14.88;;;;;;;;;;5048267;28;20053;-73
2022/03/17 08:05:31;;;;;;;34.53;13.90;;;;;;;;;;5060670;28;20032;-73
2022/03/17 08:08:00;;;;;;;37.95;14.98;;;;;;;;;;5061501;28;20131;-73
2022/03/17 08:10:28;;;;;;;27.73;11.45;;;;;;;;;;5065099;28;20036;-73
2022/03/17 08:12:54;;;;;;;32.30;11.57;;;;;;;;;;5051011;28;20040;-73
2022/03/17 08:15:20;;;;;;;34.50;12.48;;;;;;;;;;5058789;28;20059;-73
2022/03/17 08:17:46;;;;;;;28.98;11.55;;;;;;;;;;5057126;28;20036;-74
2022/03/17 08:20:12;;;;;;;36.33;11.85;;;;;;;;;;5050325;28;20094;-73
2022/03/17 08:22:39;;;;;;;30.30;12.30;;;;;;;;;;5048786;28;20044;-73
2022/03/17 08:25:05;;;;;;;32.88;12.15;;;;;;;;;;5049125;28;20033;-73
2022/03/17 08:27:31;;;;;;;26.83;12.18;;;;;;;;;;5053078;28;20040;-73
2022/03/17 08:29:57;;;;;;;28.60;10.85;;;;;;;;;;5054732;28;20084;-73
2022/03/17 08:32:23;;;;;;;34.00;11.60;;;;;;;;;;5048328;28;20494;-73
2022/03/17 08:34:49;;;;;;;36.38;11.45;;;;;;;;;;5056662;28;20024;-73
2022/03/17 08:37:15;;;;;;;37.13;11.48;;;;;;;;;;5058780;28;20069;-73
2022/03/17 08:39:41;;;;;;;31.75;11.82;;;;;;;;;;5066370;28;20520;-73
2022/03/17 08:42:07;;;;;;;31.73;11.02;;;;;;;;;;5047564;28;20033;-73
2022/03/17 08:44:33;;;;;;;24.92;9.70;;;;;;;;;;5058571;28;20078;-73
2022/03/17 08:49:44;;;;;;;22.48;10.02;;;;;;;;;;5055532;28;20071;-73
2022/03/17 08:52:10;;;;;;;25.27;10.00;;;;;;;;;;5060893;28;20069;-73
2022/03/17 08:54:36;;;;;;;26.95;9.50;;;;;;;;;;5050151;28;20132;-73
2022/03/17 08:57:04;;;;;;;27.35;9.73;;;;;;;;;;5055423;28;20044;-73
2022/03/17 08:59:31;;;;;;;32.30;10.80;;;;;;;;;;5053517;28;20032;-73
2022/03/17 09:02:00;;;;;;;32.42;10.00;;;;;;;;;;5047363;28;20037;-73
2022/03/17 09:04:27;;;;;;;28.67;9.52;;;;;;;;;;5048546;28;20136;-73
2022/03/17 09:06:58;;;;;;;19.25;8.48;;;;;;;;;;5054596;28;20025;-73
2022/03/17 09:09:25;;;;;;;20.98;8.02;;;;;;;;;;5064043;28;20036;-73
2022/03/17 09:11:51;;;;;;;30.58;8.75;;;;;;;;;;5060432;28;20037;-73
2022/03/17 09:14:16;;;;;;;28.65;9.45;;;;;;;;;;5060087;28;20075;-74
2022/03/17 09:16:42;;;;;;;25.70;8.40;;;;;;;;;;5054720;28;20456;-73
2022/03/17 09:19:08;;;;;;;23.35;8.40;;;;;;;;;;5061985;28;20024;-73
2022/03/17 09:21:35;;;;;;;26.65;8.13;;;;;;;;;;5054146;28;20025;-73
2022/03/17 09:24:03;;;;;;;26.17;8.27;;;;;;;;;;5050134;28;20421;-73
2022/03/17 09:26:29;;;;;;;21.40;7.13;;;;;;;;;;5052125;28;20208;-73
2022/03/17 09:28:55;;;;;;;26.55;8.73;;;;;;;;;;5065350;28;20114;-73
2022/03/17 09:31:22;;;;;;;21.52;8.75;;;;;;;;;;5057669;28;20036;-74
2022/03/17 09:33:48;;;;;;;33.17;8.45;;;;;;;;;;5049903;28;20029;-73
2022/03/17 09:36:16;;;;;;;26.42;9.15;;;;;;;;;;5048403;28;20048;-73
2022/03/17 09:38:42;;;;;;;24.98;8.20;;;;;;;;;;5055945;28;20425;-73
2022/03/17 09:41:24;;;;;;;20.35;7.70;;;;;;;;;;5056436;28;20025;-73
2022/03/17 09:43:50;;;;;;;;;;;;;;;;;;5051469;28;20120;-73
2022/03/17 09:46:17;;;;;;;28.92;9.35;;;;;;;;;;5043935;28;20003;-73
2022/03/17 09:48:44;;;;;;;24.70;9.10;;;;;;;;;;5049554;28;20497;-73
2022/03/17 09:51:11;;;;;;;26.92;9.23;;;;;;;;;;5058487;28;20103;-74
2022/03/17 09:53:37;;;;;;;22.65;9.05;;;;;;;;;;5068572;28;20090;-73
2022/03/17 09:56:03;;;;;;;25.05;9.50;;;;;;;;;;5062017;28;20157;-73
2022/03/17 09:58:29;;;;;;;21.17;9.07;;;;;;;;;;5058478;28;20041;-73
2022/03/17 10:00:55;;;;;;;22.48;9.57;;;;;;;;;;5054032;28;20057;-73
2022/03/17 10:03:25;;;;;;;30.88;10.07;;;;;;;;;;5056887;28;20049;-73
2022/03/17 10:05:52;;;;;;;18.60;8.98;;;;;;;;;;5058333;28;20050;-73
2022/03/17 10:08:20;;;;;;;31.17;9.65;;;;;;;;;;5061619;28;20047;-74
2022/03/17 10:10:46;;;;;;;26.08;9.70;;;;;;;;;;5059355;28;20059;-73
2022/03/17 10:13:16;;;;;;;27.40;9.18;;;;;;;;;;5052983;28;20608;-74
2022/03/17 10:15:42;;;;;;;29.00;10.65;;;;;;;;;;5051802;28;20133;-73
2022/03/17 10:18:19;;;;;;;23.23;9.07;;;;;;;;;;5051236;28;20470;-74
2022/03/17 10:20:46;;;;;;;29.38;10.45;;;;;;;;;;5048635;28;20032;-74
2022/03/17 10:23:12;;;;;;;19.40;9.90;;;;;;;;;;5049909;28;20033;-73
2022/03/17 10:25:38;;;;;;;22.80;9.88;;;;;;;;;;5057421;28;20047;-73
2022/03/17 10:28:07;;;;;;;24.17;10.13;;;;;;;;;;5055002;28;20670;-73
2022/03/17 10:30:35;;;;;;;24.75;10.52;;;;;;;;;;5051908;28;20138;-73
2022/03/17 10:33:14;;;;;;;23.73;10.10;;;;;;;;;;5052932;28;20048;-73
2022/03/17 10:35:45;;;;;;;28.73;11.68;;;;;;;;;;5056903;28;20684;-73
2022/03/17 10:38:11;;;;;;;26.23;13.67;;;;;;;;;;5062882;28;20021;-73
2022/03/17 10:40:38;;;;;;;28.88;12.88;;;;;;;;;;5054570;28;20044;-73
2022/03/17 10:43:14;;;;;;;22.10;12.07;;;;;;;;;;5061774;28;20488;-74
2022/03/17 10:45:40;;;;;;;22.27;12.82;;;;;;;;;;5045199;28;20040;-73
2022/03/17 10:48:07;;;;;;;28.98;12.52;;;;;;;;;;5060629;28;20040;-74
2022/03/17 10:50:40;;;;;;;25.98;13.43;;;;;;;;;;5057624;28;20037;-73
2022/03/17 10:53:06;;;;;;;32.25;14.10;;;;;;;;;;5059151;28;20033;-73
2022/03/17 10:55:33;;;;;;;25.75;13.35;;;;;;;;;;5055597;28;20040;-73
2022/03/17 10:58:13;;;;;;;23.00;12.70;;;;;;;;;;5054608;28;20040;-73
2022/03/17 11:00:48;;;;;;;27.67;14.30;;;;;;;;;;5052571;28;20067;-74
2022/03/17 11:03:14;;;;;;;28.15;15.15;;;;;;;;;;5057149;28;20075;-73
2022/03/17 11:05:40;;;;;;;26.80;14.98;;;;;;;;;;5059262;28;20048;-73
2022/03/17 11:08:09;;;;;;;31.85;16.98;;;;;;;;;;5051116;28;20047;-73
2022/03/17 11:10:35;;;;;;;27.88;15.57;;;;;;;;;;5059223;28;20733;-73
2022/03/17 11:13:06;;;;;;;28.23;15.57;;;;;;;;;;5052620;28;20060;-73
2022/03/17 11:15:34;;;;;;;26.50;16.05;;;;;;;;;;5053693;28;20055;-73
2022/03/17 11:18:02;;;;;;;34.05;16.25;;;;;;;;;;5056000;28;20031;-73
2022/03/17 11:20:29;;;;;;;31.73;15.73;;;;;;;;;;5054290;28;20044;-73
2022/03/17 11:23:05;;;;;;;25.83;15.98;;;;;;;;;;5056378;28;20060;-73
2022/03/17 11:25:34;;;;;;;30.83;15.57;;;;;;;;;;5061190;28;20025;-74
2022/03/17 11:28:01;;;;;;;26.95;15.07;;;;;;;;;;5063093;28;20436;-73
2022/03/17 11:30:47;;;;;;;31.90;16.55;;;;;;;;;;5063862;28;20047;-73
2022/03/17 11:33:23;;;;;;;29.08;16.38;;;;;;;;;;5055537;28;20098;-74
2022/03/17 11:35:59;;;;;;;29.63;14.77;;;;;;;;;;5058502;28;20048;-73
2022/03/17 11:38:37;;;;;;;32.33;15.00;;;;;;;;;;5051773;28;20029;-73
2022/03/17 11:41:07;;;;;;;31.50;15.73;;;;;;;;;;5044613;28;20155;-73
2022/03/17 11:43:59;;;;;;;32.17;15.13;;;;;;;;;;5048675;28;20371;-73
2022/03/17 11:46:35;;;;;;;33.35;15.82;;;;;;;;;;5055497;28;20128;-74
2022/03/17 11:49:17;;;;;;;27.45;15.50;;;;;;;;;;5052613;28;20041;-73
2022/03/17 11:51:51;;;;;;;27.30;15.07;;;;;;;;;;5050446;28;20443;-73
2022/03/17 11:54:18;;;;;;;30.40;15.30;;;;;;;;;;5061250;28;20039;-74
2022/03/17 11:56:45;;;;;;;27.50;14.50;;;;;;;;;;5051667;28;20036;-73
2022/03/17 11:59:16;;;;;;;31.42;15.00;;;;;;;;;;5058282;28;20765;-74
2022/03/17 12:01:49;;;;;;;26.05;14.63;;;;;;;;;;5051593;28;20032;-73
2022/03/17 12:04:31;;;;;;;27.73;15.45;;;;;;;;;;5047680;28;20056;-73
2022/03/17 12:07:10;;;;;;;31.77;16.40;;;;;;;;;;5044779;28;20028;-73
2022/03/17 12:09:37;;;;;;;26.50;14.35;;;;;;;;;;5056149;28;20060;-73
2022/03/17 12:12:04;;;;;;;28.90;13.80;;;;;;;;;;5056854;28;20045;-74
2022/03/17 12:14:30;;;;;;;23.80;14.18;;;;;;;;;;5050429;28;20037;-73
2022/03/17 12:16:57;;;;;;;27.98;14.65;;;;;;;;;;5051982;28;20372;-73
2022/03/17 12:19:34;;;;;;;31.63;16.38;;;;;;;;;;5059583;28;20063;-74
2022/03/17 12:22:03;;;;;;;29.38;16.67;;;;;;;;;;5054813;28;20024;-73
2022/03/17 12:24:35;;;;;;;30.63;16.65;;;;;;;;;;5061941;28;20487;-73
2022/03/17 12:27:05;;;;;;;29.95;15.68;;;;;;;;;;5060199;28;20035;-73
2022/03/17 12:29:31;;;;;;;27.58;15.95;;;;;;;;;;5048413;28;20045;-73
2022/03/17 12:32:03;;;;;;;29.23;16.45;;;;;;;;;;5059262;28;20542;-73
2022/03/17 12:34:29;;;;;;;40.63;18.23;;;;;;;;;;5055998;28;20037;-73
2022/03/17 12:36:55;;;;;;;35.22;17.67;;;;;;;;;;5060386;28;20028;-73
2022/03/17 12:39:28;;;;;;;32.05;18.42;;;;;;;;;;5047814;28;20812;-74
2022/03/17 12:41:55;;;;;;;31.95;17.55;;;;;;;;;;5052720;28;20032;-74
2022/03/17 12:44:22;;;;;;;31.00;17.73;;;;;;;;;;5046282;28;20043;-73
2022/03/17 12:46:48;;;;;;;29.65;17.90;;;;;;;;;;5054790;28;20040;-74
2022/03/17 12:49:14;;;;;;;34.22;18.15;;;;;;;;;;5048910;28;20043;-73
2022/03/17 12:51:40;;;;;;;31.88;17.50;;;;;;;;;;5062233;28;20036;-73
2022/03/17 12:54:06;;;;;;;30.58;16.75;;;;;;;;;;5051024;28;20039;-73
2022/03/17 12:56:46;;;;;;;27.67;16.92;;;;;;;;;;5054834;28;20827;-73
2022/03/17 12:59:12;;;;;;;38.50;17.55;;;;;;;;;;5045018;28;20682;-73
2022/03/17 13:01:40;;;;;;;35.10;16.73;;;;;;;;;;5048795;28;20064;-73
2022/03/17 13:04:06;;;;;;;29.92;15.90;;;;;;;;;;5046497;28;20107;-74
2022/03/17 13:09:17;;;;;;;33.17;15.68;;;;;;;;;;5043629;28;20048;-73
2022/03/17 13:14:31;;;;;;;30.13;15.85;;;;;;;;;;5048625;28;20083;-73
2022/03/17 13:16:59;;;;;;;28.98;15.25;;;;;;;;;;5056597;28;20025;-73
2022/03/17 13:19:25;;;;;;;23.65;14.98;;;;;;;;;;5051365;28;20136;-73
2022/03/17 13:21:51;;;;;;;29.25;16.00;;;;;;;;;;5050892;28;20641;-74
2022/03/17 13:24:20;;;;;;;32.90;16.38;;;;;;;;;;5059425;28;20037;-74
2022/03/17 13:26:58;;;;;;;28.63;15.20;;;;;;;;;;5047222;28;20812;-71
2022/03/17 13:29:24;;;;;;;29.33;15.88;;;;;;;;;;5046004;28;20049;-73
2022/03/17 13:31:50;;;;;;;27.50;14.68;;;;;;;;;;5057409;28;20155;-73
2022/03/17 13:34:38;;;;;;;30.88;14.68;;;;;;;;;;5053284;28;20041;-73
2022/03/17 13:37:11;;;;;;;30.02;15.80;;;;;;;;;;5050409;28;20021;-73
2022/03/17 13:39:37;;;;;;;25.83;14.48;;;;;;;;;;5051342;28;20033;-74
2022/03/17 13:42:05;;;;;;;25.92;13.20;;;;;;;;;;5054583;28;20033;-73
2022/03/17 13:44:44;;;;;;;29.92;14.77;;;;;;;;;;5069072;28;20390;-73
2022/03/17 13:47:11;;;;;;;28.67;13.63;;;;;;;;;;5060548;28;20399;-73
2022/03/17 13:49:37;;;;;;;25.10;13.18;;;;;;;;;;5062173;28;20040;-74
2022/03/17 13:52:03;;;;;;;24.98;12.10;;;;;;;;;;5059215;28;20039;-74
2022/03/17 13:54:30;;;;;;;29.77;13.23;;;;;;;;;;5061399;28;20037;-73
2022/03/17 13:57:02;;;;;;;26.00;14.65;;;;;;;;;;5048475;28;20065;-73
2022/03/17 13:59:28;;;;;;;28.20;13.68;;;;;;;;;;5055386;28;20539;-73
2022/03/17 14:02:11;;;;;;;23.52;13.30;;;;;;;;;;5054763;28;20032;-73
2022/03/17 14:04:37;;;;;;;27.88;13.50;;;;;;;;;;5055329;28;20040;-74
2022/03/17 14:07:03;;;;;;;26.48;13.88;;;;;;;;;;5054787;28;20463;-74
2022/03/17 14:09:29;;;;;;;22.35;12.45;;;;;;;;;;5056908;28;20037;-73
2022/03/17 14:11:55;;;;;;;25.65;11.93;;;;;;;;;;5054067;28;20037;-73
2022/03/17 14:14:21;;;;;;;24.08;12.32;;;;;;;;;;5062471;28;20460;-73
2022/03/17 14:16:47;;;;;;;21.67;11.40;;;;;;;;;;5056066;28;20044;-73
2022/03/17 14:19:15;;;;;;;22.73;11.93;;;;;;;;;;5051692;28;20116;-73
2022/03/17 14:24:10;;;;;;;24.77;13.23;;;;;;;;;;5056416;28;20029;-73
2022/03/17 14:24:29;;;;;;;26.20;12.70;;;;;;;;;;5055097;28;20079;-73
2022/03/17 14:26:55;;;;;;;29.38;12.85;;;;;;;;;;5050227;28;20029;-73
2022/03/17 14:29:21;;;;;;;28.35;12.70;;;;;;;;;;5057641;28;20077;-73
2022/03/17 14:31:48;;;;;;;25.73;12.55;;;;;;;;;;5053393;28;20861;-73
2022/03/17 14:34:14;;;;;;;24.60;11.85;;;;;;;;;;5061047;28;20031;-72
2022/03/17 14:36:41;;;;;;;29.02;12.52;;;;;;;;;;5052472;28;20158;-73
2022/03/17 14:39:09;;;;;;;29.08;11.88;;;;;;;;;;5054072;28;20102;-73
2022/03/17 14:41:35;;;;;;;24.83;11.93;;;;;;;;;;5050188;28;20436;-73
2022/03/17 14:44:02;;;;;;;23.45;11.45;;;;;;;;;;5054507;28;20045;-73
2022/03/17 14:46:28;;;;;;;24.17;11.55;;;;;;;;;;5051252;28;20028;-73
2022/03/17 14:48:58;;;;;;;24.75;10.95;;;;;;;;;;5054132;28;20127;-73